createdAt,value
2018-11-03T00:02:25.012Z,7.82
2018-11-03T00:04:53.661Z,7.87
2018-11-03T00:07:22.274Z,7.88
2018-11-03T00:09:50.904Z,7.99
2018-11-03T00:12:19.486Z,7.86
2018-11-03T00:14:48.060Z,7.71
2018-11-03T00:17:16.634Z,7.66
2018-11-03T00:19:45.835Z,7.78
2018-11-03T00:22:14.429Z,7.72
2018-11-03T00:24:44.651Z,7.76
2018-11-03T00:27:13.253Z,7.75
2018-11-03T00:29:41.850Z,7.63
2018-11-03T00:32:10.464Z,7.60
2018-11-03T00:34:39.074Z,7.60
2018-11-03T00:37:07.639Z,7.74
2018-11-03T00:39:37.184Z,7.72
2018-11-03T00:42:05.976Z,7.69
2018-11-03T00:44:34.532Z,7.69
2018-11-03T00:47:03.117Z,7.65
2018-11-03T00:49:32.578Z,7.76
2018-11-03T00:52:01.173Z,7.94
2018-11-03T00:54:30.986Z,7.90
2018-11-03T00:56:59.603Z,7.72
2018-11-03T00:59:28.156Z,7.58
2018-11-03T01:01:56.788Z,7.51
2018-11-03T01:04:25.367Z,7.49
2018-11-03T01:06:53.935Z,7.39
2018-11-03T01:09:22.513Z,7.27
2018-11-03T01:11:51.945Z,7.22
2018-11-03T01:14:20.798Z,7.21
2018-11-03T01:16:49.408Z,7.15
2018-11-03T01:19:17.964Z,7.20
2018-11-03T01:21:47.417Z,7.11
2018-11-03T01:24:16.864Z,7.15
2018-11-03T01:26:45.812Z,7.08
2018-11-03T01:29:15.927Z,7.07
2018-11-03T01:31:45.789Z,7.10
2018-11-03T01:34:14.366Z,7.13
2018-11-03T01:36:44.045Z,7.25
2018-11-03T01:39:13.211Z,7.16
2018-11-03T01:41:42.738Z,7.18
2018-11-03T01:44:11.343Z,7.08
2018-11-03T01:46:39.919Z,7.02
2018-11-03T01:49:09.369Z,7.18
2018-11-03T01:51:38.954Z,7.29
2018-11-03T01:54:08.380Z,7.28
2018-11-03T01:56:36.953Z,7.19
2018-11-03T01:59:06.623Z,7.06
2018-11-03T02:01:35.191Z,7.09
2018-11-03T02:04:03.779Z,7.16
2018-11-03T02:06:33.231Z,7.17
2018-11-03T02:09:01.847Z,7.17
2018-11-03T02:11:31.309Z,7.20
2018-11-03T02:13:59.874Z,7.15
2018-11-03T02:16:28.443Z,7.14
2018-11-03T02:18:57.857Z,7.04
2018-11-03T02:21:26.407Z,7.12
2018-11-03T02:23:56.017Z,7.05
2018-11-03T02:26:25.587Z,6.98
2018-11-03T02:28:55.042Z,7.08
2018-11-03T02:31:23.625Z,7.10
2018-11-03T02:33:52.188Z,6.98
2018-11-03T02:36:21.780Z,6.78
2018-11-03T02:38:51.230Z,6.59
2018-11-03T02:41:19.791Z,6.55
2018-11-03T02:43:49.389Z,6.51
2018-11-03T02:46:19.179Z,6.49
2018-11-03T02:48:47.758Z,6.49
2018-11-03T02:51:17.789Z,6.49
2018-11-03T02:53:47.785Z,6.48
2018-11-03T02:56:17.681Z,6.48
2018-11-03T02:58:47.291Z,6.56
2018-11-03T03:01:16.557Z,6.63
2018-11-03T03:03:46.631Z,6.70
2018-11-03T03:06:16.695Z,6.82
2018-11-03T03:08:46.234Z,6.84
2018-11-03T03:11:16.269Z,6.87
2018-11-03T03:13:46.886Z,7.10
2018-11-03T03:16:17.334Z,7.08
2018-11-03T03:18:46.719Z,6.98
2018-11-03T03:21:15.985Z,7.10
2018-11-03T03:23:46.487Z,7.16
2018-11-03T03:26:16.629Z,7.12
2018-11-03T03:28:46.806Z,7.25
2018-11-03T03:31:17.472Z,7.29
2018-11-03T03:33:46.785Z,7.07
2018-11-03T03:36:16.131Z,6.88
2018-11-03T03:38:46.671Z,6.81
2018-11-03T03:41:15.998Z,6.91
2018-11-03T03:43:46.188Z,6.90
2018-11-03T03:46:15.474Z,6.91
2018-11-03T03:48:45.680Z,6.88
2018-11-03T03:51:15.622Z,6.95
2018-11-03T03:53:44.665Z,7.18
2018-11-03T03:56:14.641Z,7.14
2018-11-03T03:58:44.617Z,7.20
2018-11-03T04:01:13.223Z,7.29
2018-11-03T04:03:43.225Z,7.31
2018-11-03T04:06:12.778Z,7.23
2018-11-03T04:08:42.441Z,7.03
2018-11-03T04:11:11.038Z,6.99
2018-11-03T04:13:39.608Z,7.06
2018-11-03T04:16:08.158Z,7.22
2018-11-03T04:18:36.725Z,7.19
2018-11-03T04:21:05.452Z,7.10
2018-11-03T04:23:34.018Z,7.05
2018-11-03T04:26:02.621Z,7.05
2018-11-03T04:28:32.077Z,7.21
2018-11-03T04:31:01.613Z,7.23
2018-11-03T04:33:30.949Z,7.16
2018-11-03T04:36:00.450Z,7.10
2018-11-03T04:38:29.062Z,6.99
2018-11-03T04:40:57.638Z,6.84
2018-11-03T04:43:27.179Z,6.83
2018-11-03T04:45:56.677Z,6.79
2018-11-03T04:48:26.159Z,6.98
2018-11-03T04:50:55.633Z,7.00
2018-11-03T04:53:24.195Z,6.95
2018-11-03T04:55:52.751Z,6.86
2018-11-03T04:58:21.323Z,6.91
2018-11-03T05:00:49.989Z,6.81
2018-11-03T05:03:18.595Z,7.04
2018-11-03T05:05:47.174Z,7.12
2018-11-03T05:08:17.613Z,7.12
2018-11-03T05:10:47.137Z,7.18
2018-11-03T05:13:16.353Z,7.31
2018-11-03T05:15:46.836Z,7.37
2018-11-03T05:18:16.260Z,7.29
2018-11-03T05:20:45.983Z,7.28
2018-11-03T05:23:16.588Z,7.29
2018-11-03T05:25:46.884Z,7.24
2018-11-03T05:28:16.524Z,7.13
2018-11-03T05:30:45.726Z,6.90
2018-11-03T05:33:15.957Z,6.82
2018-11-03T05:35:45.935Z,6.75
2018-11-03T05:38:15.623Z,6.71
2018-11-03T05:40:45.552Z,6.74
2018-11-03T05:43:15.859Z,6.75
2018-11-03T05:45:45.288Z,6.66
2018-11-03T05:48:14.809Z,6.66
2018-11-03T05:50:43.448Z,6.69
2018-11-03T05:53:13.409Z,6.91
2018-11-03T05:55:43.966Z,7.09
2018-11-03T05:58:14.552Z,7.07
2018-11-03T06:00:45.198Z,7.02
2018-11-03T06:03:15.251Z,7.20
2018-11-03T06:05:44.824Z,7.26
2018-11-03T06:08:15.371Z,7.16
2018-11-03T06:10:46.047Z,7.30
2018-11-03T06:13:15.594Z,7.26
2018-11-03T06:15:44.638Z,7.14
2018-11-03T06:18:14.980Z,7.10
2018-11-03T06:20:45.226Z,7.11
2018-11-03T06:23:14.613Z,7.09
2018-11-03T06:25:45.040Z,6.98
2018-11-03T06:28:14.373Z,7.08
2018-11-03T06:30:42.829Z,7.23
2018-11-03T06:33:11.346Z,7.33
2018-11-03T06:35:39.917Z,7.40
2018-11-03T06:38:08.863Z,7.27
2018-11-03T06:40:37.586Z,7.11
2018-11-03T06:43:06.709Z,7.04
2018-11-03T06:45:35.419Z,7.01
2018-11-03T06:48:04.112Z,6.99
2018-11-03T06:50:32.677Z,7.23
2018-11-03T06:53:01.694Z,7.45
2018-11-03T06:55:30.283Z,7.58
2018-11-03T06:57:58.938Z,7.66
2018-11-03T07:00:27.520Z,7.68
2018-11-03T07:02:56.342Z,7.72
2018-11-03T07:05:24.904Z,7.61
2018-11-03T07:07:53.698Z,7.68
2018-11-03T07:10:23.177Z,7.81
2018-11-03T07:12:51.924Z,7.96
2018-11-03T07:15:20.395Z,8.01
2018-11-03T07:17:48.987Z,8.12
2018-11-03T07:20:17.566Z,8.25
2018-11-03T07:22:46.891Z,8.35
2018-11-03T07:25:16.314Z,8.42
2018-11-03T07:27:45.904Z,8.39
2018-11-03T07:30:16.227Z,8.34
2018-11-03T07:32:45.290Z,8.38
2018-11-03T07:35:15.296Z,8.29
2018-11-03T07:37:44.177Z,8.43
2018-11-03T07:40:15.447Z,8.35
2018-11-03T07:42:45.778Z,8.46
2018-11-03T07:45:14.394Z,8.26
2018-11-03T07:47:44.631Z,8.43
2018-11-03T07:50:14.394Z,8.37
2018-11-03T07:52:44.370Z,8.55
2018-11-03T07:55:14.416Z,8.63
2018-11-03T07:57:43.289Z,8.81
2018-11-03T08:00:13.371Z,8.93
2018-11-03T08:02:41.981Z,8.82
2018-11-03T08:05:12.494Z,9.04
2018-11-03T08:07:42.099Z,9.18
2018-11-03T08:10:12.389Z,9.30
2018-11-03T08:12:41.102Z,9.39
2018-11-03T08:15:11.467Z,9.43
2018-11-03T08:17:41.316Z,9.56
2018-11-03T08:20:11.229Z,9.55
2018-11-03T08:22:40.993Z,9.79
2018-11-03T08:25:10.607Z,9.73
2018-11-03T08:27:39.404Z,9.74
2018-11-03T08:30:10.786Z,9.95
2018-11-03T08:32:40.240Z,10.07
2018-11-03T08:35:09.717Z,10.24
2018-11-03T08:37:38.858Z,10.34
2018-11-03T08:40:09.452Z,10.40
2018-11-03T08:42:39.166Z,10.33
2018-11-03T08:45:08.240Z,10.41
2018-11-03T08:47:36.922Z,10.46
2018-11-03T08:50:06.606Z,10.48
2018-11-03T08:52:36.159Z,10.56
2018-11-03T08:55:04.786Z,10.45
2018-11-03T08:57:33.396Z,10.53
2018-11-03T09:00:02.161Z,10.59
2018-11-03T09:02:30.747Z,10.63
2018-11-03T09:04:59.422Z,10.77
2018-11-03T09:07:29.088Z,10.62
2018-11-03T09:09:57.802Z,10.69
2018-11-03T09:12:26.426Z,10.77
2018-11-03T09:14:55.119Z,10.71
2018-11-03T09:17:23.862Z,10.76
2018-11-03T09:19:53.693Z,10.84
2018-11-03T09:22:23.690Z,10.87
2018-11-03T09:24:52.356Z,11.10
2018-11-03T09:27:21.903Z,11.39
2018-11-03T09:29:50.805Z,11.50
2018-11-03T09:32:19.479Z,11.45
2018-11-03T09:34:48.179Z,11.48
2018-11-03T09:37:17.469Z,11.49
2018-11-03T09:39:46.876Z,11.60
2018-11-03T09:42:17.668Z,11.73
2018-11-03T09:44:47.483Z,11.55
2018-11-03T09:47:16.972Z,11.52
2018-11-03T09:49:46.609Z,11.65
2018-11-03T09:52:17.492Z,11.83
2018-11-03T09:54:46.882Z,11.90
2018-11-03T09:57:16.359Z,11.98
2018-11-03T09:59:45.796Z,12.02
2018-11-03T10:02:15.238Z,12.06
2018-11-03T10:04:51.667Z,12.13
2018-11-03T10:07:21.408Z,12.18
2018-11-03T10:09:51.118Z,12.24
2018-11-03T10:12:20.760Z,12.23
2018-11-03T10:14:50.392Z,12.42
2018-11-03T10:17:19.847Z,12.57
2018-11-03T10:19:48.546Z,12.35
2018-11-03T10:22:18.101Z,12.55
2018-11-03T10:24:47.576Z,12.31
2018-11-03T10:27:17.026Z,12.28
2018-11-03T10:29:46.532Z,12.49
2018-11-03T10:32:16.760Z,12.60
2018-11-03T10:34:46.226Z,12.34
2018-11-03T10:37:15.301Z,12.41
2018-11-03T10:39:45.567Z,12.42
2018-11-03T10:42:15.648Z,12.39
2018-11-03T10:44:45.673Z,12.62
2018-11-03T10:47:14.519Z,12.76
2018-11-03T10:49:44.550Z,12.48
2018-11-03T10:52:15.310Z,12.51
2018-11-03T10:54:44.917Z,12.51
2018-11-03T10:57:14.594Z,12.54
2018-11-03T10:59:43.445Z,12.56
2018-11-03T11:02:17.195Z,12.37
2018-11-03T11:04:51.391Z,12.43
2018-11-03T11:07:25.235Z,12.44
2018-11-03T11:09:59.214Z,12.64
2018-11-03T11:12:33.189Z,12.73
2018-11-03T11:15:01.746Z,12.78
2018-11-03T11:17:30.291Z,12.97
2018-11-03T11:19:58.941Z,13.12
2018-11-03T11:22:28.393Z,13.06
2018-11-03T11:24:57.066Z,12.86
2018-11-03T11:27:25.663Z,12.87
2018-11-03T11:29:54.246Z,12.93
2018-11-03T11:32:22.809Z,13.00
2018-11-03T11:34:51.532Z,12.73
2018-11-03T11:37:20.330Z,12.68
2018-11-03T11:39:49.044Z,12.70
2018-11-03T11:42:17.685Z,12.30
2018-11-03T11:44:48.259Z,12.42
2018-11-03T11:47:16.955Z,12.39
2018-11-03T11:49:46.728Z,12.53
2018-11-03T11:52:16.182Z,12.63
2018-11-03T11:54:46.855Z,12.75
2018-11-03T11:57:15.908Z,12.79
2018-11-03T11:59:46.516Z,12.60
2018-11-03T12:02:16.520Z,12.49
2018-11-03T12:04:45.797Z,12.54
2018-11-03T12:07:14.598Z,12.40
2018-11-03T12:09:43.193Z,12.73
2018-11-03T12:12:12.767Z,12.79
2018-11-03T12:14:42.361Z,13.00
2018-11-03T12:17:10.898Z,12.88
2018-11-03T12:19:40.389Z,12.84
2018-11-03T12:22:09.863Z,12.64
2018-11-03T12:24:38.479Z,12.76
2018-11-03T12:27:07.995Z,13.00
2018-11-03T12:29:36.590Z,13.29
2018-11-03T12:32:06.220Z,13.39
2018-11-03T12:34:35.443Z,13.43
2018-11-03T12:37:04.967Z,13.43
2018-11-03T12:39:34.442Z,13.58
2018-11-03T12:42:03.878Z,13.40
2018-11-03T12:44:32.676Z,13.30
2018-11-03T12:47:02.237Z,13.39
2018-11-03T12:49:31.008Z,13.23
2018-11-03T12:52:00.613Z,13.25
2018-11-03T12:54:30.012Z,13.10
2018-11-03T12:56:59.519Z,12.97
2018-11-03T12:59:28.965Z,13.01
2018-11-03T13:01:58.348Z,13.04
2018-11-03T13:04:26.901Z,13.14
2018-11-03T13:06:56.544Z,13.16
2018-11-03T13:09:25.097Z,13.16
2018-11-03T13:11:53.673Z,13.02
2018-11-03T13:14:23.560Z,13.05
2018-11-03T13:16:52.918Z,13.00
2018-11-03T13:19:21.503Z,12.89
2018-11-03T13:21:51.134Z,12.95
2018-11-03T13:24:19.770Z,12.83
2018-11-03T13:26:48.336Z,12.77
2018-11-03T13:29:16.905Z,12.66
2018-11-03T13:31:46.421Z,12.55
2018-11-03T13:34:16.910Z,12.50
2018-11-03T13:36:47.570Z,12.39
2018-11-03T13:39:17.413Z,12.26
2018-11-03T13:41:46.933Z,12.38
2018-11-03T13:44:16.540Z,12.26
2018-11-03T13:46:45.998Z,12.31
2018-11-03T13:49:16.656Z,12.16
2018-11-03T13:51:47.468Z,12.07
2018-11-03T13:54:17.060Z,11.93
2018-11-03T13:56:46.920Z,12.03
2018-11-03T13:59:17.162Z,11.99
2018-11-03T14:01:46.806Z,11.94
2018-11-03T14:04:16.191Z,11.93
2018-11-03T14:06:46.800Z,11.97
2018-11-03T14:09:16.199Z,11.93
2018-11-03T14:11:45.969Z,11.95
2018-11-03T14:14:15.387Z,11.91
2018-11-03T14:16:45.382Z,12.05
2018-11-03T14:19:15.908Z,12.12
2018-11-03T14:21:45.120Z,12.10
2018-11-03T14:24:15.517Z,12.23
2018-11-03T14:26:44.652Z,12.23
2018-11-03T14:29:13.400Z,12.27
2018-11-03T14:31:42.043Z,12.17
2018-11-03T14:34:10.766Z,12.05
2018-11-03T14:36:39.478Z,12.04
2018-11-03T14:39:09.539Z,12.16
2018-11-03T14:41:39.255Z,12.01
2018-11-03T14:44:07.776Z,12.00
2018-11-03T14:46:36.344Z,11.89
2018-11-03T14:49:05.418Z,11.73
2018-11-03T14:51:34.172Z,11.67
2018-11-03T14:54:02.868Z,11.57
2018-11-03T14:56:31.401Z,11.68
2018-11-03T14:59:00.056Z,11.60
2018-11-03T15:01:29.068Z,11.52
2018-11-03T15:03:57.654Z,11.44
2018-11-03T15:06:26.452Z,11.34
2018-11-03T15:08:55.002Z,11.25
2018-11-03T15:11:23.535Z,11.09
2018-11-03T15:13:52.222Z,10.90
2018-11-03T15:16:21.798Z,10.74
2018-11-03T15:18:50.487Z,10.59
2018-11-03T15:21:19.094Z,10.42
2018-11-03T15:23:47.759Z,10.29
2018-11-03T15:26:17.504Z,10.19
2018-11-03T15:28:46.870Z,10.18
2018-11-03T15:31:16.157Z,10.03
2018-11-03T15:33:45.634Z,9.99
2018-11-03T15:36:17.592Z,9.87
2018-11-03T15:38:46.438Z,9.73
2018-11-03T15:41:16.953Z,9.59
2018-11-03T15:43:46.133Z,9.47
2018-11-03T15:46:15.375Z,9.33
2018-11-03T15:48:45.524Z,9.26
2018-11-03T15:51:14.676Z,9.26
2018-11-03T15:53:43.212Z,9.26
2018-11-03T15:56:12.684Z,9.26
2018-11-03T15:58:41.907Z,9.26
2018-11-03T16:01:10.476Z,9.22
2018-11-03T16:03:39.168Z,9.19
2018-11-03T16:06:07.707Z,9.10
2018-11-03T16:08:36.396Z,9.05
2018-11-03T16:11:05.109Z,9.00
2018-11-03T16:13:33.971Z,9.01
2018-11-03T16:16:02.522Z,8.88
2018-11-03T16:18:31.108Z,8.75
2018-11-03T16:21:00.573Z,8.67
2018-11-03T16:23:30.051Z,8.56
2018-11-03T16:25:59.826Z,8.48
2018-11-03T16:28:29.366Z,8.43
2018-11-03T16:30:57.912Z,8.30
2018-11-03T16:33:26.474Z,8.19
2018-11-03T16:35:55.154Z,7.99
2018-11-03T16:38:24.152Z,7.87
2018-11-03T16:40:53.840Z,7.75
2018-11-03T16:43:22.436Z,7.72
2018-11-03T16:45:51.938Z,7.72
2018-11-03T16:48:21.413Z,7.64
2018-11-03T16:50:50.008Z,7.60
2018-11-03T16:53:18.676Z,7.53
2018-11-03T16:55:47.272Z,7.51
2018-11-03T16:58:16.755Z,7.56
2018-11-03T17:00:46.083Z,7.52
2018-11-03T17:03:15.819Z,7.44
2018-11-03T17:05:45.239Z,7.46
2018-11-03T17:08:14.955Z,7.48
2018-11-03T17:10:44.618Z,7.48
2018-11-03T17:13:13.313Z,7.43
2018-11-03T17:15:41.880Z,7.38
2018-11-03T17:18:10.430Z,7.34
2018-11-03T17:20:39.344Z,7.26
2018-11-03T17:23:08.131Z,7.23
2018-11-03T17:25:37.079Z,7.15
2018-11-03T17:28:06.052Z,7.15
2018-11-03T17:30:35.643Z,7.13
2018-11-03T17:33:04.403Z,7.06
2018-11-03T17:35:33.165Z,6.99
2018-11-03T17:38:03.020Z,6.95
2018-11-03T17:40:31.621Z,6.93
2018-11-03T17:43:00.397Z,6.91
2018-11-03T17:45:29.206Z,6.81
2018-11-03T17:47:57.786Z,6.80
2018-11-03T17:50:26.431Z,6.70
2018-11-03T17:52:55.033Z,6.66
2018-11-03T17:55:23.570Z,6.64
2018-11-03T17:57:52.353Z,6.61
2018-11-03T18:00:21.056Z,6.58
2018-11-03T18:02:49.550Z,6.57
2018-11-03T18:05:18.123Z,6.52
2018-11-03T18:07:47.161Z,6.54
2018-11-03T18:10:16.387Z,6.51
2018-11-03T18:12:45.665Z,6.41
2018-11-03T18:15:14.452Z,6.38
2018-11-03T18:17:44.602Z,6.38
2018-11-03T18:20:13.292Z,6.44
2018-11-03T18:22:41.906Z,6.46
2018-11-03T18:25:11.201Z,6.49
2018-11-03T18:27:40.624Z,6.45
2018-11-03T18:30:10.618Z,6.47
2018-11-03T18:32:40.587Z,6.53
2018-11-03T18:35:09.364Z,6.50
2018-11-03T18:37:38.518Z,6.43
2018-11-03T18:40:07.884Z,6.46
2018-11-03T18:42:37.799Z,6.55
2018-11-03T18:45:06.516Z,6.61
2018-11-03T18:47:35.077Z,6.49
2018-11-03T18:50:05.364Z,6.44
2018-11-03T18:52:33.924Z,6.47
2018-11-03T18:55:02.530Z,6.38
2018-11-03T18:57:32.088Z,6.41
2018-11-03T19:00:00.728Z,6.49
2018-11-03T19:02:29.765Z,6.56
2018-11-03T19:04:58.404Z,6.49
2018-11-03T19:07:26.951Z,6.50
2018-11-03T19:09:56.631Z,6.47
2018-11-03T19:12:25.341Z,6.40
2018-11-03T19:14:54.800Z,6.39
2018-11-03T19:17:23.515Z,6.43
2018-11-03T19:19:52.326Z,6.38
2018-11-03T19:22:21.987Z,6.35
2018-11-03T19:24:51.545Z,6.38
2018-11-03T19:27:20.116Z,6.32
2018-11-03T19:29:49.631Z,6.40
2018-11-03T19:32:18.195Z,6.39
2018-11-03T19:34:46.805Z,6.25
2018-11-03T19:37:16.326Z,6.17
2018-11-03T19:39:45.713Z,6.13
2018-11-03T19:42:14.554Z,6.11
2018-11-03T19:44:43.523Z,6.02
2018-11-03T19:47:12.441Z,6.08
2018-11-03T19:49:41.374Z,6.05
2018-11-03T19:52:10.302Z,6.12
2018-11-03T19:54:38.958Z,6.25
2018-11-03T19:57:07.534Z,6.28
2018-11-03T19:59:36.129Z,6.46
2018-11-03T20:02:04.848Z,6.57
2018-11-03T20:04:34.403Z,6.50
2018-11-03T20:07:03.285Z,6.54
2018-11-03T20:09:31.843Z,6.49
2018-11-03T20:12:00.348Z,6.46
2018-11-03T20:14:29.025Z,6.38
2018-11-03T20:16:57.607Z,6.38
2018-11-03T20:19:27.028Z,6.37
2018-11-03T20:21:55.674Z,6.39
2018-11-03T20:24:24.240Z,6.30
2018-11-03T20:26:52.938Z,6.28
2018-11-03T20:29:21.511Z,6.18
2018-11-03T20:31:51.085Z,6.12
2018-11-03T20:34:20.520Z,6.08
2018-11-03T20:36:49.110Z,6.04
2018-11-03T20:39:18.538Z,5.97
2018-11-03T20:41:47.147Z,6.02
2018-11-03T20:44:16.667Z,5.98
2018-11-03T20:46:46.188Z,6.12
2018-11-03T20:49:14.908Z,6.03
2018-11-03T20:51:44.535Z,5.91
2018-11-03T20:54:13.310Z,5.90
2018-11-03T20:56:41.889Z,5.89
2018-11-03T20:59:11.283Z,5.82
2018-11-03T21:01:39.902Z,5.81
2018-11-03T21:04:08.454Z,5.69
2018-11-03T21:06:37.008Z,5.74
2018-11-03T21:09:07.390Z,5.71
2018-11-03T21:11:36.453Z,5.67
2018-11-03T21:14:05.472Z,5.56
2018-11-03T21:16:34.106Z,5.45
2018-11-03T21:19:03.751Z,5.38
2018-11-03T21:21:32.391Z,5.33
2018-11-03T21:24:01.065Z,5.24
2018-11-03T21:26:29.639Z,5.31
2018-11-03T21:28:58.255Z,5.33
2018-11-03T21:31:26.839Z,5.33
2018-11-03T21:33:55.441Z,5.25
2018-11-03T21:36:25.030Z,5.17
2018-11-03T21:38:53.707Z,5.13
2018-11-03T21:41:22.521Z,5.21
2018-11-03T21:43:52.015Z,5.08
2018-11-03T21:46:20.738Z,5.15
2018-11-03T21:48:50.311Z,5.19
2018-11-03T21:51:20.005Z,5.19
2018-11-03T21:53:48.590Z,5.15
2018-11-03T21:56:17.368Z,5.16
2018-11-03T21:58:46.569Z,5.12
2018-11-03T22:01:17.387Z,5.09
2018-11-03T22:03:47.430Z,5.10
2018-11-03T22:06:16.954Z,5.10
2018-11-03T22:08:46.199Z,5.02
2018-11-03T22:11:15.449Z,5.00
2018-11-03T22:13:44.735Z,5.08
2018-11-03T22:16:13.501Z,5.04
2018-11-03T22:18:43.985Z,4.99
2018-11-03T22:21:13.371Z,4.93
2018-11-03T22:23:42.822Z,4.86
2018-11-03T22:26:13.708Z,4.84
2018-11-03T22:28:42.357Z,4.92
2018-11-03T22:31:11.791Z,4.98
2018-11-03T22:33:41.320Z,5.03
2018-11-03T22:36:10.002Z,5.09
2018-11-03T22:38:38.543Z,5.02
2018-11-03T22:41:07.121Z,4.95
2018-11-03T22:43:35.745Z,4.99
2018-11-03T22:46:04.289Z,5.00
2018-11-03T22:48:32.955Z,5.14
2018-11-03T22:51:01.543Z,5.14
2018-11-03T22:53:30.127Z,5.31
2018-11-03T22:55:58.678Z,5.41
2018-11-03T22:58:27.204Z,5.56
2018-11-03T23:00:57.275Z,5.67
2018-11-03T23:03:26.601Z,5.85
2018-11-03T23:05:55.195Z,5.90
2018-11-03T23:08:24.106Z,6.08
2018-11-03T23:10:52.681Z,6.18
2018-11-03T23:13:21.229Z,6.27
2018-11-03T23:15:49.791Z,6.32
2018-11-03T23:18:18.473Z,6.35
2018-11-03T23:20:47.047Z,6.34
2018-11-03T23:23:17.482Z,6.40
2018-11-03T23:25:46.654Z,6.46
2018-11-03T23:28:16.137Z,6.44
2018-11-03T23:30:45.617Z,6.51
2018-11-03T23:33:14.519Z,6.54
2018-11-03T23:35:43.565Z,6.58
2018-11-03T23:38:12.094Z,6.47
2018-11-03T23:40:40.660Z,6.48
2018-11-03T23:43:09.333Z,6.55
2018-11-03T23:45:37.971Z,6.61
2018-11-03T23:48:07.573Z,6.59
2018-11-03T23:50:36.157Z,6.55
2018-11-03T23:53:04.810Z,6.50
2018-11-03T23:55:33.386Z,6.51
2018-11-03T23:58:01.941Z,6.44
